Time;durP1;ratioP1;P1;durP2;ratioP2;P2;SDS_P1;SDS_P2;PMS_P1;PMS_P2;Temp;Humidity;BMP_temperature;BMP_pressure;BME280_temperature;BME280_humidity;BME280_pressure;Samples;Min_cycle;Max_cycle;Signal;HPM_P1;HPM_P2
2022/08/12 00:45:11;;;;;;;4.83;3.17;;;14.10;99.90;13.50;101302;;;;568917;252;24106;-81
2022/08/12 00:47:42;;;;;;;4.40;3.33;;;14.10;99.90;13.40;101298;;;;569093;252;24123;-80
2022/08/12 00:50:07;;;;;;;7.17;3.63;;;14.10;99.90;13.50;101307;;;;560696;252;24117;-81
2022/08/12 00:52:35;;;;;;;4.93;3.37;;;14.10;99.90;13.50;101303;;;;558878;252;24154;-79
2022/08/12 00:55:07;;;;;;;3.93;2.77;;;14.10;99.90;13.50;101309;;;;563413;252;24168;-80
2022/08/12 00:57:37;;;;;;;4.20;2.90;;;14.10;99.90;13.50;101311;;;;569070;252;24116;-82
2022/08/12 01:00:07;;;;;;;3.57;2.93;;;14.10;99.90;13.50;101310;;;;563385;252;24129;-81
2022/08/12 01:02:33;;;;;;;6.53;3.20;;;14.10;99.90;13.50;101316;;;;569051;252;24107;-79
2022/08/12 01:13:22;;;;;;;7.57;3.33;;;14.10;99.90;13.40;101314;;;;569551;251;24163;-78
2022/08/12 01:15:52;;;;;;;4.43;3.13;;;14.00;99.90;13.40;101309;;;;558196;252;24127;-78
2022/08/12 01:18:21;;;;;;;4.23;3.07;;;13.90;99.90;13.30;101312;;;;559246;251;24133;-76
2022/08/12 01:20:52;;;;;;;5.63;3.50;;;13.90;99.90;13.30;101303;;;;559539;251;24121;-77
2022/08/12 01:24:09;;;;;;;5.60;3.47;;;13.90;99.90;13.30;101305;;;;564254;251;24098;-78
2022/08/12 01:26:37;;;;;;;4.23;3.27;;;13.90;99.90;13.20;101306;;;;561662;251;24106;-77
2022/08/12 01:29:09;;;;;;;3.60;3.30;;;13.80;99.90;13.20;101307;;;;569490;251;24118;-76
2022/08/12 01:31:33;;;;;;;7.40;3.60;;;13.80;99.90;13.10;101315;;;;557978;252;24149;-76
2022/08/12 01:34:06;;;;;;;3.57;3.27;;;13.70;99.90;13.10;101304;;;;569642;251;24097;-77
2022/08/12 01:36:44;;;;;;;3.40;2.77;;;13.70;99.90;13.10;101308;;;;563961;252;24116;-76
2022/08/12 01:39:11;;;;;;;4.23;3.83;;;13.70;99.90;13.10;101306;;;;569305;251;24158;-75
2022/08/12 01:41:41;;;;;;;6.40;3.60;;;13.70;99.90;13.10;101307;;;;569303;252;24103;-78
2022/08/12 01:44:08;;;;;;;6.63;2.87;;;13.70;99.90;13.10;101308;;;;568843;251;24119;-77
2022/08/12 01:46:46;;;;;;;5.13;3.13;;;13.70;99.90;13.10;101318;;;;569470;251;24148;-79
2022/08/12 01:49:22;;;;;;;4.10;2.57;;;13.70;99.90;13.10;101306;;;;569535;251;24095;-77
2022/08/12 01:51:50;;;;;;;3.87;2.80;;;13.70;99.90;13.20;101304;;;;560057;252;24128;-78
2022/08/12 01:54:21;;;;;;;6.50;3.53;;;13.80;99.90;13.20;101310;;;;568400;252;24117;-79
2022/08/12 01:56:55;;;;;;;7.77;4.33;;;13.80;99.90;13.20;101300;;;;550139;252;35426;-78
2022/08/12 01:59:57;;;;;;;4.67;3.43;;;13.90;99.90;13.20;101307;;;;569308;251;24103;-78
2022/08/12 02:02:37;;;;;;;3.03;2.83;;;13.80;99.90;13.20;101306;;;;563293;247;24111;-78
2022/08/12 02:11:21;;;;;;;5.63;2.47;;;13.80;99.90;13.20;101306;;;;569424;252;24099;-78
2022/08/12 02:14:20;;;;;;;7.37;2.90;;;13.90;99.90;13.20;101304;;;;563634;252;24098;-81
2022/08/12 02:17:34;;;;;;;2.90;2.43;;;13.90;99.90;13.30;101299;;;;560536;252;24120;-84
2022/08/12 02:20:36;;;;;;;4.10;2.97;;;13.90;99.90;13.30;101302;;;;560960;252;24099;-82
2022/08/12 02:23:03;;;;;;;4.77;3.07;;;14.00;99.90;13.30;101308;;;;560489;252;24121;-77
2022/08/12 02:25:34;;;;;;;3.27;2.80;;;14.00;99.90;13.30;101303;;;;568785;251;24203;-80
2022/08/12 02:28:05;;;;;;;4.67;3.20;;;14.00;99.90;13.30;101304;;;;568514;252;24128;-84
2022/08/12 02:30:30;;;;;;;4.83;3.33;;;14.00;99.90;13.30;101305;;;;569724;251;24191;-81
2022/08/12 02:32:58;;;;;;;4.63;3.00;;;14.00;99.90;13.30;101297;;;;569955;248;24133;-81
2022/08/12 02:35:26;;;;;;;5.60;2.73;;;14.00;99.90;13.30;101306;;;;569983;251;24185;-83
2022/08/12 02:37:54;;;;;;;3.30;2.53;;;14.00;99.90;13.40;101304;;;;570099;251;24148;-83
2022/08/12 02:40:22;;;;;;;3.03;2.67;;;14.00;99.90;13.40;101306;;;;569879;251;24164;-83
2022/08/12 02:43:11;;;;;;;5.97;3.43;;;14.00;99.90;13.40;101298;;;;569943;252;24112;-85
2022/08/12 02:45:44;;;;;;;3.90;2.83;;;14.10;99.90;13.40;101307;;;;564270;252;24118;-82
2022/08/12 02:48:09;;;;;;;6.87;2.90;;;14.10;99.90;13.40;101301;;;;555454;252;25157;-78
2022/08/12 02:50:38;;;;;;;4.03;2.83;;;14.00;99.90;13.30;101299;;;;569150;251;24139;-80
2022/08/12 02:53:06;;;;;;;3.73;3.03;;;14.00;99.90;13.30;101295;;;;569375;252;24100;-82
2022/08/12 02:55:38;;;;;;;6.80;2.90;;;14.00;99.90;13.30;101301;;;;561293;252;24099;-83
2022/08/12 02:58:06;;;;;;;5.37;3.07;;;13.90;99.90;13.30;101298;;;;561123;252;24107;-81
2022/08/12 03:00:33;;;;;;;3.53;2.90;;;13.90;99.90;13.20;101299;;;;569547;252;24091;-80
2022/08/12 03:03:01;;;;;;;5.20;2.77;;;13.90;99.90;13.30;101303;;;;561218;252;24115;-76
2022/08/12 03:05:29;;;;;;;3.17;2.67;;;13.90;99.90;13.20;101309;;;;568833;252;24124;-77
2022/08/12 03:07:59;;;;;;;4.00;2.80;;;13.90;99.90;13.20;101311;;;;561848;252;24109;-79
2022/08/12 03:10:27;;;;;;;4.80;3.07;;;13.90;99.90;13.30;101309;;;;570273;251;24139;-76
2022/08/12 03:12:52;;;;;;;4.70;2.83;;;13.90;99.90;13.20;101299;;;;570343;252;24174;-78
2022/08/12 03:15:21;;;;;;;2.70;2.30;;;13.90;99.90;13.30;101304;;;;569241;251;24132;-84
2022/08/12 03:17:54;;;;;;;2.40;1.97;;;13.90;99.90;13.40;101306;;;;570039;251;24081;-80
2022/08/12 03:20:22;;;;;;;3.03;2.60;;;14.10;99.90;13.40;101302;;;;563728;252;24095;-84
2022/08/12 03:22:50;;;;;;;3.57;3.17;;;14.10;99.90;13.50;101300;;;;568928;252;25176;-84
2022/08/12 03:25:27;;;;;;;4.43;3.00;;;14.10;99.90;13.40;101307;;;;569060;252;24164;-85
2022/08/12 03:27:57;;;;;;;4.10;3.40;;;14.10;99.90;13.40;101306;;;;559977;252;24106;-84
2022/08/12 03:30:28;;;;;;;3.70;3.10;;;14.10;99.90;13.40;101304;;;;568977;252;24100;-84
2022/08/12 03:32:56;;;;;;;3.40;3.10;;;14.00;99.90;13.40;101300;;;;559994;252;24153;-84
2022/08/12 03:35:26;;;;;;;4.73;3.17;;;14.00;99.90;13.30;101303;;;;558048;252;24095;-79
2022/08/12 03:37:57;;;;;;;6.63;4.00;;;14.00;99.90;13.30;101303;;;;560011;252;24095;-83
2022/08/12 04:02:36;;;;;;;7.93;3.70;;;14.00;99.90;13.50;101305;;;;569153;251;24116;-80
2022/08/12 04:05:05;;;;;;;8.00;4.00;;;14.10;99.90;13.60;101308;;;;560867;252;24167;-75
2022/08/12 04:07:32;;;;;;;4.97;3.80;;;14.10;99.90;13.60;101308;;;;559281;252;24100;-77
2022/08/12 04:09:57;;;;;;;7.53;3.97;;;14.20;99.90;13.70;101296;;;;569289;251;24103;-77
2022/08/12 04:15:11;;;;;;;7.23;3.63;;;14.30;99.90;13.90;101304;;;;569518;251;24142;-81
2022/08/12 04:17:43;;;;;;;10.57;5.13;;;14.50;99.90;14.00;101303;;;;556133;252;36898;-77
2022/08/12 04:20:10;;;;;;;13.77;5.03;;;14.60;99.90;14.10;101300;;;;568888;251;24117;-83
2022/08/12 04:22:36;;;;;;;10.13;4.93;;;14.60;99.90;14.60;101304;;;;569211;251;24099;-81
2022/08/12 04:25:04;;;;;;;20.87;4.80;;;15.10;99.90;15.80;101304;;;;569220;252;24109;-84
2022/08/12 04:27:32;;;;;;;9.60;4.10;;;16.40;99.90;17.40;101306;;;;569227;251;24099;-84
2022/08/12 04:30:00;;;;;;;5.40;3.37;;;17.90;99.90;18.90;101314;;;;560791;252;24095;-77
2022/08/12 04:32:28;;;;;;;11.27;4.40;;;21.10;99.90;20.30;101320;;;;563171;252;24112;-77
2022/08/12 04:34:57;;;;;;;13.93;4.00;;;21.00;99.90;21.60;101319;;;;560030;252;24123;-77
2022/08/12 04:37:24;;;;;;;10.60;4.37;;;22.40;99.90;22.70;101323;;;;569485;249;23225;-78
2022/08/12 04:39:52;;;;;;;14.53;4.97;;;23.60;99.90;23.70;101313;;;;578200;244;24038;-79
2022/08/12 04:42:23;;;;;;;28.43;5.73;;;24.60;99.90;24.50;101312;;;;578129;244;24036;-79
2022/08/12 04:44:48;;;;;;;13.80;4.30;;;25.50;99.90;25.30;101312;;;;575832;244;23049;-79
2022/08/12 04:47:20;;;;;;;21.90;5.03;;;26.40;99.90;26.10;101314;;;;578153;244;24061;-81
2022/08/12 04:49:44;;;;;;;25.00;5.20;;;27.20;99.90;26.90;101324;;;;577395;244;24073;-85
2022/08/12 04:52:12;;;;;;;29.67;6.40;;;28.00;99.00;27.80;101320;;;;578205;244;24053;-85
2022/08/12 04:54:40;;;;;;;55.50;8.10;;;28.80;96.10;28.50;101316;;;;588738;241;23049;-82
2022/08/12 04:57:08;;;;;;;40.30;6.20;;;29.60;92.30;29.30;101323;;;;579489;244;23043;-79
2022/08/12 04:59:35;;;;;;;48.67;6.15;;;30.40;87.60;30.10;101318;;;;578991;244;23129;-81
2022/08/12 05:02:03;;;;;;;56.75;7.28;;;31.20;82.90;30.80;101318;;;;587664;243;24097;-78
2022/08/12 05:04:31;;;;;;;62.03;7.90;;;31.90;77.10;31.50;101321;;;;578664;244;24102;-78
2022/08/12 05:06:59;;;;;;;73.15;7.60;;;32.60;72.20;32.30;101334;;;;579111;244;23051;-79
2022/08/12 05:09:27;;;;;;;63.92;8.95;;;33.30;68.70;32.90;101336;;;;567808;248;23073;-77
2022/08/12 05:11:55;;;;;;;51.00;8.75;;;33.90;65.50;33.60;101334;;;;577156;248;23165;-78
2022/08/12 05:14:23;;;;;;;53.10;8.30;;;34.50;63.40;34.20;101334;;;;577122;248;24160;-78
2022/08/12 05:16:51;;;;;;;48.63;6.75;;;35.10;60.80;35.10;101335;;;;577178;248;24113;-78
2022/08/12 05:19:20;;;;;;;33.80;5.28;;;35.90;59.10;35.50;101333;;;;577028;248;23132;-80
2022/08/12 05:21:47;;;;;;;28.90;5.37;;;36.30;56.70;35.60;101333;;;;577182;248;23134;-78
2022/08/12 05:24:15;;;;;;;30.73;6.22;;;36.50;55.60;36.10;101339;;;;570372;248;23218;-80
2022/08/12 05:26:43;;;;;;;38.55;6.90;;;36.90;54.70;36.50;101346;;;;556634;253;23121;-80
2022/08/12 05:29:13;;;;;;;70.93;8.52;;;37.30;53.70;37.00;101351;;;;579775;247;24084;-80
2022/08/12 05:31:38;;;;;;;47.13;6.22;;;37.70;52.80;37.70;101359;;;;570861;251;23111;-79
2022/08/12 05:34:06;;;;;;;55.80;7.12;;;38.40;51.90;38.20;101367;;;;562515;253;23097;-78
2022/08/12 05:36:35;;;;;;;55.60;7.78;;;39.00;50.60;38.80;101363;;;;570669;251;23101;-79
2022/08/12 05:39:03;;;;;;;53.25;7.50;;;40.10;48.60;39.40;101358;;;;569067;252;23182;-79
2022/08/12 05:41:32;;;;;;;38.38;6.70;;;40.80;47.80;40.10;101365;;;;571405;250;23096;-80
2022/08/12 05:44:02;;;;;;;48.85;7.40;;;40.70;47.60;40.70;101369;;;;571905;249;23107;-80
2022/08/12 05:46:30;;;;;;;43.50;6.97;;;41.40;46.50;41.30;101369;;;;572223;250;23088;-85
2022/08/12 05:48:59;;;;;;;38.53;6.57;;;42.00;45.80;41.80;101370;;;;572074;250;23153;-79
2022/08/12 05:51:26;;;;;;;30.30;6.32;;;42.60;44.60;42.50;101370;;;;564778;252;23104;-78
2022/08/12 05:53:57;;;;;;;35.28;5.80;;;43.10;44.00;42.80;101375;;;;563568;252;23102;-79
2022/08/12 05:56:30;;;;;;;31.60;4.97;;;43.50;43.10;43.30;101372;;;;563581;252;23099;-81
2022/08/12 05:59:01;;;;;;;23.98;4.60;;;43.90;42.60;43.70;101379;;;;579391;248;23069;-80
2022/08/12 06:01:29;;;;;;;25.70;4.35;;;44.50;41.90;44.30;101373;;;;553301;252;35458;-82
2022/08/12 06:03:54;;;;;;;23.08;4.80;;;44.90;41.20;44.50;101376;;;;556842;251;23157;-79
2022/08/12 06:06:22;;;;;;;25.30;4.78;;;45.20;40.50;44.90;101382;;;;578355;247;23082;-79
2022/08/12 06:08:52;;;;;;;22.70;4.03;;;45.60;40.30;45.40;101382;;;;573060;250;23172;-79
2022/08/12 06:11:18;;;;;;;10.63;2.60;;;46.00;39.60;45.80;101384;;;;569640;248;23089;-80
2022/08/12 06:13:47;;;;;;;14.43;3.53;;;46.60;38.80;46.00;101381;;;;566116;250;24116;-79
2022/08/12 06:16:15;;;;;;;24.33;4.28;;;46.90;38.40;46.40;101381;;;;567970;252;23100;-80
2022/08/12 06:18:47;;;;;;;12.27;3.53;;;47.20;37.70;46.70;101386;;;;569582;248;23117;-80
2022/08/12 06:21:13;;;;;;;4.50;2.55;;;47.50;36.70;46.90;101385;;;;557733;253;23165;-85
2022/08/12 06:23:41;;;;;;;18.60;3.97;;;47.40;36.60;47.10;101388;;;;575200;249;23085;-86
2022/08/12 06:26:11;;;;;;;12.27;3.80;;;47.70;36.50;47.50;101385;;;;563952;252;23134;-81
2022/08/12 06:28:40;;;;;;;13.70;3.22;;;48.20;36.30;47.80;101378;;;;563682;252;23123;-81
2022/08/12 06:31:14;;;;;;;11.18;2.92;;;48.50;35.60;48.20;101379;;;;554265;252;23161;-84
2022/08/12 06:33:39;;;;;;;9.20;2.83;;;48.70;35.30;48.30;101374;;;;556093;253;23136;-80
2022/08/12 06:36:06;;;;;;;8.43;2.75;;;48.90;35.20;48.60;101375;;;;555056;250;23118;-81
2022/08/12 06:38:35;;;;;;;5.35;2.50;;;48.90;35.20;48.80;101376;;;;572037;249;23170;-81
2022/08/12 06:43:50;;;;;;;5.35;2.37;;;49.30;34.10;49.20;101373;;;;564397;253;23214;-85
2022/08/12 06:46:16;;;;;;;8.52;2.85;;;49.50;33.70;49.20;101367;;;;567769;249;23083;-87
2022/08/12 06:48:44;;;;;;;6.45;2.47;;;49.80;33.90;49.40;101375;;;;567490;249;23165;-82
2022/08/12 06:51:13;;;;;;;16.67;3.47;;;50.00;33.60;49.70;101380;;;;571069;248;35254;-86
2022/08/12 06:53:43;;;;;;;7.30;2.10;;;50.10;32.20;49.70;101377;;;;576112;249;23109;-85
2022/08/12 06:56:10;;;;;;;10.18;2.37;;;50.10;32.10;49.80;101385;;;;567704;249;23102;-87
2022/08/12 06:58:38;;;;;;;8.63;3.03;;;50.10;32.00;49.70;101384;;;;578190;246;23109;-91
2022/08/12 07:01:07;;;;;;;8.13;2.20;;;50.10;31.40;49.50;101386;;;;565171;251;23101;-84
2022/08/12 07:03:37;;;;;;;13.43;3.78;;;50.00;31.70;49.90;101385;;;;574702;247;23116;-85
2022/08/12 07:06:03;;;;;;;16.30;3.80;;;50.20;31.10;49.70;101384;;;;564082;252;24136;-85
2022/08/12 07:08:34;;;;;;;17.58;4.32;;;50.10;31.10;49.60;101395;;;;573689;250;23096;-86
2022/08/12 07:11:02;;;;;;;3.35;1.92;;;50.10;31.30;49.20;101392;;;;575608;247;23064;-86
2022/08/12 07:13:51;;;;;;;9.80;2.80;;;49.80;31.30;49.30;101396;;;;564716;252;23097;-85
2022/08/12 07:16:00;;;;;;;5.35;2.22;;;49.80;31.70;49.40;101388;;;;569605;248;23112;-85
2022/08/12 07:18:31;;;;;;;8.37;2.23;;;49.80;31.60;49.30;101385;;;;570151;245;35222;-87
2022/08/12 07:20:56;;;;;;;3.08;2.25;;;49.80;31.30;49.10;101387;;;;574033;246;23106;-85
2022/08/12 07:23:26;;;;;;;4.82;1.83;;;49.60;32.00;49.70;101387;;;;576899;245;23146;-85
2022/08/12 07:25:50;;;;;;;7.05;2.17;;;49.90;32.20;50.50;101383;;;;585009;245;23062;-85
2022/08/12 07:28:18;;;;;;;10.23;2.12;;;50.50;31.80;51.00;101385;;;;576298;245;23122;-84
2022/08/12 07:30:50;;;;;;;7.22;2.10;;;50.90;31.60;51.30;101388;;;;576179;241;23071;-84
2022/08/12 07:33:15;;;;;;;4.37;1.87;;;51.40;30.80;51.10;101382;;;;574114;245;23096;-85
2022/08/12 07:35:49;;;;;;;13.52;2.10;;;51.40;30.80;51.40;101389;;;;572810;246;23073;-84
2022/08/12 07:38:30;;;;;;;7.30;2.83;;;51.70;30.90;51.70;101386;;;;584058;245;23083;-87
2022/08/12 07:40:57;;;;;;;4.30;1.83;;;51.90;30.30;51.60;101387;;;;573092;250;24141;-84
2022/08/12 07:43:26;;;;;;;4.60;1.83;;;51.90;30.40;51.80;101387;;;;575030;246;23122;-84
2022/08/12 07:45:53;;;;;;;11.18;2.22;;;52.00;30.20;51.70;101383;;;;576475;246;23129;-85
2022/08/12 07:48:25;;;;;;;1.98;1.60;;;52.00;30.50;52.10;101382;;;;582665;246;23085;-86
2022/08/12 07:50:49;;;;;;;8.35;1.95;;;52.30;29.90;52.30;101375;;;;576514;246;23082;-85
2022/08/12 07:53:17;;;;;;;2.42;2.15;;;52.50;29.70;52.30;101378;;;;584685;245;23122;-84
2022/08/12 07:55:45;;;;;;;3.40;2.00;;;52.80;29.20;52.30;101387;;;;572924;246;23088;-86
2022/08/12 07:58:13;;;;;;;4.55;1.98;;;52.70;29.20;52.10;101392;;;;572489;246;23054;-85
2022/08/12 08:00:45;;;;;;;2.42;1.60;;;52.50;29.00;51.90;101388;;;;575609;246;24129;-83
2022/08/12 08:03:12;;;;;;;3.40;1.60;;;52.20;29.10;51.60;101389;;;;576657;245;35281;-84
2022/08/12 08:05:44;;;;;;;4.40;1.80;;;52.20;29.10;51.20;101391;;;;567656;248;23102;-82
2022/08/12 08:08:15;;;;;;;3.03;1.33;;;51.90;29.40;50.80;101397;;;;566019;251;23162;-82
2022/08/12 08:10:43;;;;;;;4.25;1.35;;;51.50;29.00;50.90;101396;;;;567748;251;24148;-83
2022/08/12 08:13:11;;;;;;;1.80;1.40;;;51.40;29.20;51.10;101395;;;;568592;251;23107;-83
2022/08/12 08:15:37;;;;;;;1.62;1.15;;;51.50;29.20;50.70;101389;;;;559043;251;23112;-85
2022/08/12 08:18:06;;;;;;;3.65;1.73;;;51.40;28.90;50.50;101394;;;;566105;251;24142;-85
2022/08/12 08:20:35;;;;;;;4.15;1.30;;;51.20;29.10;50.60;101397;;;;563350;251;23114;-84
2022/08/12 08:23:06;;;;;;;2.90;1.30;;;51.20;29.20;50.70;101394;;;;560025;252;23132;-85
2022/08/12 08:25:34;;;;;;;1.40;1.30;;;51.30;29.10;50.60;101400;;;;561732;251;23161;-85
2022/08/12 08:28:04;;;;;;;3.45;1.60;;;51.40;28.80;50.60;101391;;;;559154;254;23154;-85
2022/08/12 08:30:32;;;;;;;1.27;1.17;;;51.40;28.90;50.90;101401;;;;569340;251;23104;-85
2022/08/12 08:33:03;;;;;;;2.90;1.40;;;51.50;29.00;50.60;101402;;;;568968;251;23106;-85
2022/08/12 08:35:28;;;;;;;9.95;1.70;;;51.40;28.80;51.20;101399;;;;566009;252;23119;-86
2022/08/12 08:38:05;;;;;;;5.55;1.60;;;52.20;28.40;51.90;101399;;;;560497;253;23145;-86
2022/08/12 08:43:23;;;;;;;3.40;1.25;;;53.00;28.70;52.20;101397;;;;584202;243;24147;-86
2022/08/12 08:45:52;;;;;;;3.35;1.42;;;53.20;28.50;52.50;101390;;;;556552;251;23128;-86
2022/08/12 08:48:21;;;;;;;2.70;1.70;;;53.60;27.80;52.90;101391;;;;577955;247;23131;-88
2022/08/12 08:50:48;;;;;;;1.40;1.20;;;53.70;27.80;52.30;101387;;;;568942;248;23138;-85
2022/08/12 08:53:20;;;;;;;2.40;1.10;;;53.50;27.10;51.90;101384;;;;574665;248;23111;-83
2022/08/12 08:55:44;;;;;;;5.78;1.70;;;53.20;27.50;52.10;101383;;;;555097;252;23099;-86
2022/08/12 08:58:12;;;;;;;3.62;1.75;;;53.10;27.40;51.50;101384;;;;575996;244;23058;-91
2022/08/12 09:00:41;;;;;;;4.75;1.25;;;52.80;27.20;50.40;101379;;;;568285;249;23086;-86
2022/08/12 09:03:09;;;;;;;5.37;1.50;;;51.70;28.40;50.60;101375;;;;561284;252;23156;-83
2022/08/12 09:05:37;;;;;;;8.68;1.75;;;52.00;28.70;51.20;101379;;;;576529;248;23096;-83
2022/08/12 09:08:06;;;;;;;2.70;1.15;;;52.70;28.20;52.10;101385;;;;567894;248;23102;-83
2022/08/12 09:10:35;;;;;;;1.90;1.60;;;53.20;27.00;51.80;101384;;;;559040;253;23073;-82
2022/08/12 09:13:45;;;;;;;8.55;1.23;;;53.20;27.00;50.70;101387;;;;572558;247;23109;-84
2022/08/12 09:15:37;;;;;;;1.00;1.00;;;52.00;27.60;50.50;101382;;;;558808;255;23178;-81
2022/08/12 09:18:04;;;;;;;7.22;1.60;;;52.00;27.60;50.80;101379;;;;573695;248;23065;-85
2022/08/12 09:20:32;;;;;;;5.15;1.10;;;52.00;27.00;49.40;101382;;;;563505;248;23128;-82
2022/08/12 09:23:00;;;;;;;2.37;1.00;;;51.20;27.50;49.00;101385;;;;565402;248;23093;-82
2022/08/12 09:25:38;;;;;;;6.65;1.08;;;50.60;28.10;48.60;101394;;;;578157;248;23161;-84
2022/08/12 09:27:56;;;;;;;2.53;1.42;;;50.30;28.60;47.50;101394;;;;557544;254;23126;-83
2022/08/12 09:30:27;;;;;;;3.60;1.67;;;49.40;30.00;47.30;101397;;;;570280;251;23085;-85
2022/08/12 09:32:52;;;;;;;5.30;1.37;;;49.10;29.80;47.70;101397;;;;558648;253;23219;-82
2022/08/12 09:35:30;;;;;;;2.97;1.37;;;49.30;29.70;47.80;101387;;;;558272;253;23120;-84
2022/08/12 09:37:55;;;;;;;2.95;1.65;;;49.30;29.70;47.70;101397;;;;572027;250;23089;-84
2022/08/12 09:40:22;;;;;;;1.42;0.93;;;49.30;29.30;47.50;101388;;;;568263;251;23124;-83
2022/08/12 09:45:36;;;;;;;2.92;1.40;;;48.80;29.60;46.90;101377;;;;562987;252;23126;-85
2022/08/12 09:48:07;;;;;;;2.92;1.60;;;48.80;29.90;47.40;101384;;;;578882;247;23078;-86
2022/08/12 09:50:39;;;;;;;3.87;1.33;;;49.10;30.10;47.30;101370;;;;568553;248;23090;-85
2022/08/12 09:53:24;;;;;;;2.15;1.75;;;49.10;30.60;47.30;101373;;;;579313;244;23096;-84
2022/08/12 09:55:57;;;;;;;4.75;1.70;;;49.10;30.70;47.50;101377;;;;578479;244;23076;-82
2022/08/12 09:58:27;;;;;;;3.37;1.65;;;49.50;30.20;47.90;101377;;;;560636;251;23128;-82
2022/08/12 10:00:53;;;;;;;48.38;5.95;;;49.50;30.20;47.70;101377;;;;572637;245;23136;-83
2022/08/12 10:03:24;;;;;;;2.45;1.23;;;49.60;30.00;47.00;101372;;;;577791;245;23100;-83
2022/08/12 10:05:50;;;;;;;4.72;1.73;;;49.10;30.20;47.00;101378;;;;587308;245;23088;-86
2022/08/12 10:08:17;;;;;;;5.62;1.77;;;49.00;30.10;46.20;101367;;;;577923;245;23077;-85
2022/08/12 10:13:43;;;;;;;4.87;1.67;;;48.50;30.50;46.10;101382;;;;582811;245;45999;-85
2022/08/12 10:16:16;;;;;;;5.72;1.52;;;48.40;30.30;45.40;101365;;;;587876;244;23088;-82
2022/08/12 10:19:00;;;;;;;7.18;1.40;;;47.90;30.70;45.40;101365;;;;578099;245;23087;-84
2022/08/12 10:21:40;;;;;;;23.80;3.83;;;47.60;31.00;45.00;101369;;;;586037;244;23095;-84
2022/08/12 10:24:13;;;;;;;2.15;1.40;;;46.60;32.00;44.40;101371;;;;570965;249;23110;-85
2022/08/12 10:29:38;;;;;;;3.78;1.37;;;46.20;31.80;43.80;101363;;;;558595;254;23200;-83
2022/08/12 10:32:04;;;;;;;20.08;3.30;;;45.70;32.30;43.30;101362;;;;548646;259;23144;-83
2022/08/12 10:34:34;;;;;;;3.25;1.20;;;45.30;32.10;42.80;101358;;;;546045;259;23141;-82
2022/08/12 10:36:59;;;;;;;4.57;1.42;;;44.80;33.10;41.70;101352;;;;548957;258;23207;-84
2022/08/12 10:39:33;;;;;;;4.32;1.20;;;44.10;33.10;40.30;101357;;;;546060;259;23117;-84
2022/08/12 10:44:48;;;;;;;4.85;1.40;;;41.60;34.40;38.00;101343;;;;554558;259;23123;-84
2022/08/12 10:47:16;;;;;;;2.55;1.30;;;40.20;36.00;37.40;101341;;;;566488;252;23128;-84
2022/08/12 10:49:43;;;;;;;4.07;1.23;;;39.10;37.50;36.50;101334;;;;558389;253;23118;-84
2022/08/12 10:52:08;;;;;;;1.17;0.93;;;38.00;38.20;35.40;101344;;;;568937;247;24196;-84
2022/08/12 10:54:36;;;;;;;1.25;1.17;;;36.70;39.50;34.10;101334;;;;558843;252;23109;-84
2022/08/12 10:57:09;;;;;;;7.18;1.10;;;33.90;43.70;32.80;101329;;;;573435;246;23134;-83
2022/08/12 10:59:34;;;;;;;3.15;1.60;;;33.80;43.60;32.00;101328;;;;565197;251;23162;-84
2022/08/12 11:02:03;;;;;;;5.40;1.67;;;31.90;47.50;31.40;101334;;;;574089;246;23134;-83
2022/08/12 11:04:31;;;;;;;8.40;1.20;;;31.80;47.50;30.80;101323;;;;565144;251;23102;-82
2022/08/12 11:06:59;;;;;;;4.80;1.50;;;31.20;48.10;30.20;101327;;;;573291;246;23098;-80
2022/08/12 11:09:30;;;;;;;4.05;1.40;;;30.60;49.10;29.70;101325;;;;564702;250;23079;-81
2022/08/12 11:11:55;;;;;;;7.07;1.30;;;30.10;50.00;29.30;101332;;;;572920;250;23158;-82
2022/08/12 11:14:33;;;;;;;3.17;1.63;;;29.80;50.70;29.10;101322;;;;564549;250;23117;-83
2022/08/12 11:17:01;;;;;;;31.50;4.60;;;29.10;51.70;28.80;101322;;;;564645;246;23098;-83
2022/08/12 11:19:32;;;;;;;4.60;1.50;;;29.10;51.70;28.50;101306;;;;572862;250;23126;-84
2022/08/12 11:21:57;;;;;;;8.77;1.70;;;28.90;52.00;28.30;101319;;;;563695;250;23108;-83
2022/08/12 11:24:29;;;;;;;5.70;1.90;;;28.50;52.70;28.00;101315;;;;572701;247;23132;-79
2022/08/12 11:26:54;;;;;;;1.70;1.60;;;28.40;52.60;27.80;101310;;;;564265;249;23139;-83
2022/08/12 11:29:22;;;;;;;2.40;1.43;;;28.20;53.70;27.60;101301;;;;568257;247;24127;-82
2022/08/12 11:31:50;;;;;;;1.77;1.40;;;28.10;54.40;27.30;101303;;;;565887;249;24150;-79
2022/08/12 11:34:18;;;;;;;4.50;1.80;;;27.80;54.90;27.10;101300;;;;556860;253;23122;-79
2022/08/12 11:36:51;;;;;;;2.75;1.20;;;27.70;55.90;26.90;101302;;;;546243;256;35395;-79
2022/08/12 11:39:19;;;;;;;4.62;1.30;;;27.50;55.40;26.80;101296;;;;556611;255;35411;-80
2022/08/12 11:41:50;;;;;;;4.90;1.37;;;27.10;56.60;26.60;101297;;;;567049;253;23204;-79
2022/08/12 11:44:16;;;;;;;2.23;1.40;;;27.10;56.50;26.60;101294;;;;557263;253;28427;-77
2022/08/12 11:46:44;;;;;;;1.50;1.23;;;27.10;56.60;26.60;101295;;;;559661;253;23159;-80
2022/08/12 11:49:11;;;;;;;6.53;1.47;;;27.00;57.40;26.60;101297;;;;565883;253;23155;-78
2022/08/12 11:51:39;;;;;;;3.17;1.40;;;27.10;57.30;26.60;101290;;;;565427;252;23124;-77
2022/08/12 11:54:08;;;;;;;4.37;1.60;;;27.00;58.10;26.60;101294;;;;557283;253;23099;-78
2022/08/12 11:56:36;;;;;;;6.37;2.00;;;27.00;58.00;26.50;101291;;;;557802;253;24154;-79
2022/08/12 11:59:04;;;;;;;8.40;1.80;;;27.00;58.30;26.50;101299;;;;557667;253;23131;-77
2022/08/12 12:01:32;;;;;;;23.13;3.20;;;26.90;58.40;26.40;101281;;;;557790;253;24187;-80
2022/08/12 12:04:00;;;;;;;13.73;2.77;;;26.90;58.00;26.40;101284;;;;559148;252;23129;-78
2022/08/12 12:06:28;;;;;;;4.17;1.87;;;26.80;58.50;26.30;101297;;;;558544;253;23084;-77
2022/08/12 12:08:56;;;;;;;3.90;1.30;;;26.80;58.60;26.30;101291;;;;558024;253;24099;-77
2022/08/12 12:11:24;;;;;;;2.93;1.30;;;26.70;58.70;26.30;101289;;;;559164;253;23145;-77
2022/08/12 12:13:51;;;;;;;35.23;4.07;;;26.70;58.80;26.20;101297;;;;558379;253;23175;-77
2022/08/12 12:16:19;;;;;;;2.70;2.20;;;26.70;59.70;26.20;101289;;;;558586;253;24076;-77
2022/08/12 12:18:47;;;;;;;4.50;2.03;;;26.70;59.60;26.20;101279;;;;558750;253;23085;-76
2022/08/12 12:21:15;;;;;;;3.20;1.30;;;26.60;59.80;26.20;101286;;;;558200;253;23129;-77
2022/08/12 12:23:47;;;;;;;6.07;1.40;;;26.50;60.00;26.10;101287;;;;558567;251;24137;-77
2022/08/12 12:26:13;;;;;;;6.47;1.53;;;26.50;60.90;26.10;101279;;;;558203;253;24138;-76
2022/08/12 12:28:41;;;;;;;1.40;1.30;;;26.50;60.80;26.00;101280;;;;558317;253;23102;-78
2022/08/12 12:31:08;;;;;;;4.67;1.87;;;26.50;60.60;26.00;101292;;;;558156;253;24150;-76
2022/08/12 12:33:36;;;;;;;4.63;1.70;;;26.40;60.30;25.90;101288;;;;566670;252;23085;-78
2022/08/12 12:36:04;;;;;;;3.77;2.03;;;26.40;61.20;25.80;101275;;;;558532;253;24118;-79
2022/08/12 12:38:33;;;;;;;2.00;1.30;;;26.20;60.60;25.80;101283;;;;566540;252;24064;-77
2022/08/12 12:41:01;;;;;;;4.53;1.60;;;26.20;60.60;25.70;101271;;;;560161;253;23142;-78
2022/08/12 12:43:30;;;;;;;8.80;2.00;;;26.20;60.40;25.70;101261;;;;558323;253;23089;-78
2022/08/12 12:45:57;;;;;;;2.40;1.50;;;26.10;61.10;25.60;101275;;;;558150;253;24127;-79
2022/08/12 12:48:25;;;;;;;2.03;1.80;;;26.10;61.50;25.60;101268;;;;566482;252;23108;-79
2022/08/12 12:53:39;;;;;;;5.50;1.80;;;26.00;61.60;25.60;101266;;;;559918;253;23127;-79
2022/08/12 12:56:11;;;;;;;2.53;1.60;;;26.00;61.20;25.70;101254;;;;557940;253;23114;-80
2022/08/12 12:58:42;;;;;;;3.27;1.57;;;26.10;61.20;25.70;101261;;;;557750;253;24144;-79
2022/08/12 13:01:06;;;;;;;2.60;1.80;;;26.00;61.10;25.60;101257;;;;561375;255;23158;-78